TLPC/SLU METAR and TAF weather

Enter ICAO airport designator
Station Type Date Time Source
TLPC METAR 2020/01/19 14:00 UTC NOAA

TLPC 191400Z 10010G25KT 9999 SCT027 28/21 Q1018 NOSIG


Station Type Date Time Source
TLPC Decoded METAR 2020/01/19 14:00 UTC NOAA

Vigie, Saint Lucia (TLPC) 14-01N 061-00W 2M
Jan 19, 2020 - 09:00 AM EST / 2020.01.19 1400 UTC
Wind: from the E (100 degrees) at 12 MPH (10 KT) gusting to 29 MPH (25 KT):0
Visibility: greater than 7 mile(s):0
Sky conditions: partly cloudy
Temperature: 82 F (28 C)
Dew Point: 69 F (21 C)
Relative Humidity: 65%
Pressure (altimeter): 30.06 in. Hg (1018 hPa)
ob: TLPC 191400Z 10010G25KT 9999 SCT027 28/21 Q1018 NOSIG
cycle: 14

Station Type Date Time Source
TLPC TAF 2020/01/19 12:12 UTC NOAA

TAF TAF TLPC 191111Z 1912/2012 09007KT 9999 SCT026

Example: see airport list